createdAt,value
2022-10-24T00:00:01.573Z,23.27
2022-10-24T00:02:31.121Z,24.65
2022-10-24T00:05:01.161Z,25.80
2022-10-24T00:07:30.470Z,25.15
2022-10-24T00:10:00.507Z,26.08
2022-10-24T00:12:31.326Z,25.48
2022-10-24T00:15:01.269Z,23.50
2022-10-24T00:17:30.540Z,29.35
2022-10-24T00:20:00.966Z,25.52
2022-10-24T00:22:30.887Z,25.27
2022-10-24T00:27:31.692Z,29.15
2022-10-24T00:30:01.556Z,29.13
2022-10-24T00:32:30.998Z,29.45
2022-10-24T00:35:01.017Z,26.63
2022-10-24T00:37:30.283Z,26.42
2022-10-24T00:40:00.530Z,29.08
2022-10-24T00:42:31.380Z,28.52
2022-10-24T00:45:01.525Z,24.35
2022-10-24T00:47:31.062Z,30.77
2022-10-24T00:50:11.351Z,41.10
2022-10-24T00:52:44.248Z,44.25
2022-10-24T00:55:16.338Z,62.92
2022-10-24T00:57:51.094Z,49.58
2022-10-24T01:00:23.622Z,82.05
2022-10-24T01:02:53.261Z,49.28
2022-10-24T01:05:25.262Z,60.08
2022-10-24T01:08:10.653Z,47.70
2022-10-24T01:10:50.074Z,44.90
2022-10-24T01:13:31.093Z,47.70
2022-10-24T01:16:08.021Z,46.42
2022-10-24T01:18:44.074Z,52.13
2022-10-24T01:21:30.740Z,53.42
2022-10-24T01:24:27.605Z,57.10
2022-10-24T01:27:20.103Z,57.80
2022-10-24T01:29:58.477Z,49.92
2022-10-24T01:32:39.504Z,54.28
2022-10-24T01:35:24.007Z,53.65
2022-10-24T01:38:02.392Z,57.65
2022-10-24T01:40:35.617Z,59.30
2022-10-24T01:43:11.521Z,53.92
2022-10-24T01:45:46.549Z,54.85
2022-10-24T01:48:20.405Z,59.30
2022-10-24T01:50:53.645Z,48.65
2022-10-24T01:53:26.561Z,55.70
2022-10-24T01:55:56.373Z,65.18
2022-10-24T01:58:25.970Z,70.10
2022-10-24T02:01:03.202Z,61.35
2022-10-24T02:03:36.565Z,65.10
2022-10-24T02:06:10.717Z,59.38
2022-10-24T02:08:53.822Z,66.15
2022-10-24T02:11:23.156Z,65.45
2022-10-24T02:13:58.849Z,70.60
2022-10-24T02:16:29.660Z,64.60
2022-10-24T02:19:00.374Z,65.97
2022-10-24T02:21:35.301Z,70.70
2022-10-24T02:24:09.741Z,102.95
2022-10-24T02:26:44.357Z,105.70
2022-10-24T02:29:20.832Z,115.43
2022-10-24T02:31:56.611Z,80.47
2022-10-24T02:34:31.153Z,93.57
2022-10-24T02:37:03.089Z,138.43
2022-10-24T02:39:33.500Z,151.63
2022-10-24T02:42:04.878Z,114.97
2022-10-24T02:44:36.045Z,134.98
2022-10-24T02:47:09.661Z,95.40
2022-10-24T02:49:39.580Z,211.30
2022-10-24T02:52:09.372Z,116.72
2022-10-24T02:54:39.281Z,189.40
2022-10-24T02:57:08.573Z,257.48
2022-10-24T02:59:38.597Z,208.98
2022-10-24T03:02:09.597Z,75.80
2022-10-24T03:04:39.516Z,179.07
2022-10-24T03:07:09.174Z,192.95
2022-10-24T03:09:38.727Z,174.77
2022-10-24T03:12:08.308Z,311.48
2022-10-24T03:14:38.060Z,96.97
2022-10-24T03:17:08.773Z,246.63
2022-10-24T03:22:08.180Z,132.52
2022-10-24T03:24:44.398Z,115.40
2022-10-24T03:27:24.337Z,219.88
2022-10-24T03:29:54.375Z,198.30
2022-10-24T03:34:59.816Z,141.65
2022-10-24T03:37:29.519Z,179.48
2022-10-24T03:39:59.445Z,97.25
2022-10-24T03:42:28.902Z,296.88
2022-10-24T03:44:58.435Z,131.60
2022-10-24T03:47:29.292Z,115.82
2022-10-24T03:49:58.881Z,210.45
2022-10-24T03:52:28.133Z,194.18
2022-10-24T03:54:58.025Z,293.65
2022-10-24T03:57:27.343Z,265.63
2022-10-24T03:59:57.200Z,298.23
2022-10-24T04:02:27.965Z,254.35
2022-10-24T04:04:58.046Z,501.00
2022-10-24T04:07:27.415Z,384.70
2022-10-24T04:09:57.617Z,480.23
2022-10-24T04:12:27.574Z,242.55
2022-10-24T04:15:01.019Z,444.60
2022-10-24T04:17:35.586Z,231.77
2022-10-24T04:20:06.761Z,275.35
2022-10-24T04:22:36.258Z,362.83
2022-10-24T04:25:06.905Z,239.82
2022-10-24T04:27:40.838Z,363.67
2022-10-24T04:30:16.337Z,404.98
2022-10-24T04:32:47.998Z,198.10
2022-10-24T04:35:18.323Z,382.08
2022-10-24T04:37:47.594Z,450.90
2022-10-24T04:40:18.000Z,181.73
2022-10-24T04:42:47.896Z,327.23
2022-10-24T04:45:18.138Z,262.33
2022-10-24T04:47:48.978Z,293.80
2022-10-24T04:50:19.117Z,216.35
2022-10-24T04:52:48.694Z,219.15
2022-10-24T04:55:18.891Z,152.02
2022-10-24T04:57:48.502Z,316.38
2022-10-24T05:00:18.866Z,145.77
2022-10-24T05:02:50.690Z,365.73
2022-10-24T05:05:23.182Z,171.75
2022-10-24T05:07:52.459Z,174.70
2022-10-24T05:10:22.437Z,213.35
2022-10-24T05:12:51.672Z,192.85
2022-10-24T05:15:22.044Z,136.98
2022-10-24T05:17:52.840Z,159.87
2022-10-24T05:20:22.885Z,292.13
2022-10-24T05:22:52.147Z,249.50
2022-10-24T05:25:22.226Z,200.07
2022-10-24T05:27:51.487Z,149.10
2022-10-24T05:30:21.831Z,262.40
2022-10-24T05:32:52.598Z,144.32
2022-10-24T05:35:22.305Z,120.95
2022-10-24T05:37:51.572Z,157.77
2022-10-24T05:40:21.939Z,155.85
2022-10-24T05:42:52.544Z,152.52
2022-10-24T05:45:23.035Z,237.05
2022-10-24T05:47:53.837Z,134.10
2022-10-24T05:50:23.721Z,162.75
2022-10-24T05:52:52.978Z,362.15
2022-10-24T05:55:22.977Z,151.98
2022-10-24T05:57:52.233Z,205.82
2022-10-24T06:00:22.272Z,251.85
2022-10-24T06:02:53.126Z,298.27
2022-10-24T06:05:23.380Z,279.45
2022-10-24T06:07:52.675Z,144.15
2022-10-24T06:10:22.905Z,226.13
2022-10-24T06:12:52.485Z,133.85
2022-10-24T06:15:22.353Z,207.70
2022-10-24T06:17:53.086Z,185.93
2022-10-24T06:20:23.000Z,161.45
2022-10-24T06:22:52.334Z,218.43
2022-10-24T06:25:22.672Z,159.25
2022-10-24T06:27:51.905Z,191.90
2022-10-24T06:30:21.875Z,162.60
2022-10-24T06:32:52.792Z,252.35
2022-10-24T06:35:22.762Z,237.07
2022-10-24T06:37:52.123Z,176.23
2022-10-24T06:40:22.153Z,177.25
2022-10-24T06:42:51.417Z,158.90
2022-10-24T06:45:22.101Z,172.88
2022-10-24T06:47:54.365Z,145.43
2022-10-24T06:50:24.698Z,165.25
2022-10-24T06:52:53.950Z,202.32
2022-10-24T06:55:23.950Z,165.73
2022-10-24T06:57:55.158Z,151.18
2022-10-24T07:00:24.765Z,156.70
2022-10-24T07:02:55.677Z,186.15
2022-10-24T07:05:25.589Z,200.85
2022-10-24T07:07:54.887Z,134.75
2022-10-24T07:10:25.368Z,144.55
2022-10-24T07:12:54.668Z,244.07
2022-10-24T07:15:24.317Z,229.88
2022-10-24T07:17:55.236Z,164.57
2022-10-24T07:20:25.463Z,145.18
2022-10-24T07:22:54.965Z,158.25
2022-10-24T07:25:25.005Z,154.53
2022-10-24T07:27:55.937Z,155.07
2022-10-24T07:30:26.119Z,162.70
2022-10-24T07:32:59.353Z,146.32
2022-10-24T07:35:29.413Z,147.13
2022-10-24T07:37:59.009Z,144.07
2022-10-24T07:40:28.996Z,149.65
2022-10-24T07:42:58.382Z,134.85
2022-10-24T07:45:28.629Z,138.80
2022-10-24T07:48:00.234Z,140.90
2022-10-24T07:50:30.017Z,125.05
2022-10-24T07:52:59.269Z,121.60
2022-10-24T07:55:29.348Z,120.88
2022-10-24T07:57:58.581Z,127.70
2022-10-24T08:00:28.140Z,124.72
2022-10-24T08:02:59.182Z,128.02
2022-10-24T08:05:28.927Z,129.05
2022-10-24T08:08:12.000Z,112.68
2022-10-24T08:10:48.491Z,130.30
2022-10-24T08:13:18.027Z,128.23
2022-10-24T08:15:47.570Z,122.18
2022-10-24T08:18:18.492Z,119.88
2022-10-24T08:20:57.908Z,119.90
2022-10-24T08:23:27.229Z,109.07
2022-10-24T08:25:56.899Z,118.45
2022-10-24T08:28:26.681Z,114.95
2022-10-24T08:31:00.113Z,110.03
2022-10-24T08:33:31.251Z,113.65
2022-10-24T08:36:03.057Z,111.10
2022-10-24T08:38:32.861Z,109.75
2022-10-24T08:41:03.106Z,115.80
2022-10-24T08:43:33.342Z,104.60
2022-10-24T08:46:12.317Z,108.85
2022-10-24T08:48:51.490Z,108.78
2022-10-24T08:51:31.946Z,115.28
2022-10-24T08:54:03.517Z,114.65
2022-10-24T08:56:35.559Z,109.80
2022-10-24T08:59:06.656Z,106.50
2022-10-24T09:01:43.269Z,100.80
2022-10-24T09:04:17.862Z,105.03
2022-10-24T09:06:50.132Z,106.63
2022-10-24T09:09:25.046Z,99.30
2022-10-24T09:11:58.532Z,98.47
2022-10-24T09:14:31.067Z,103.68
2022-10-24T09:17:03.971Z,86.13
2022-10-24T09:19:35.138Z,89.05
2022-10-24T09:22:05.762Z,88.85
2022-10-24T09:24:41.004Z,85.97
2022-10-24T09:27:15.660Z,90.68
2022-10-24T09:29:45.056Z,78.65
2022-10-24T09:32:21.106Z,77.03
2022-10-24T09:34:52.364Z,86.80
2022-10-24T09:37:43.961Z,80.22
2022-10-24T09:40:21.992Z,77.53
2022-10-24T09:42:57.598Z,82.38
2022-10-24T09:45:42.302Z,78.10
2022-10-24T09:48:29.205Z,79.18
2022-10-24T09:51:01.869Z,76.25
2022-10-24T09:53:34.701Z,73.90
2022-10-24T09:56:12.020Z,78.47
2022-10-24T09:58:42.638Z,67.82
2022-10-24T10:01:23.077Z,71.47
2022-10-24T10:04:08.830Z,67.55
2022-10-24T10:06:46.066Z,70.97
2022-10-24T10:09:17.528Z,65.70
2022-10-24T10:14:32.837Z,71.65
2022-10-24T10:17:05.365Z,64.45
2022-10-24T10:19:38.968Z,66.22
2022-10-24T10:22:25.397Z,68.75
2022-10-24T10:24:55.933Z,58.70
2022-10-24T10:27:32.392Z,60.33
2022-10-24T10:30:20.351Z,55.30
2022-10-24T10:33:02.115Z,48.92
2022-10-24T10:35:37.110Z,44.03
2022-10-24T10:38:21.285Z,41.83
2022-10-24T10:40:55.088Z,43.63
2022-10-24T10:43:32.328Z,41.95
2022-10-24T10:46:15.018Z,44.45
2022-10-24T10:48:55.847Z,38.90
2022-10-24T10:51:37.583Z,36.85
2022-10-24T10:54:25.777Z,35.85
2022-10-24T10:56:58.461Z,33.03
2022-10-24T10:59:43.131Z,36.88
2022-10-24T11:02:36.515Z,35.10
2022-10-24T11:05:21.482Z,35.65
2022-10-24T11:08:05.711Z,33.55
2022-10-24T11:10:41.517Z,37.70
2022-10-24T11:13:20.543Z,36.13
2022-10-24T11:15:52.312Z,39.17
2022-10-24T11:18:31.578Z,36.95
2022-10-24T11:21:08.595Z,40.10
2022-10-24T11:26:24.332Z,42.35
2022-10-24T11:28:58.922Z,45.78
2022-10-24T11:31:32.209Z,43.97
2022-10-24T11:34:05.958Z,49.63
2022-10-24T11:36:43.285Z,52.75
2022-10-24T11:39:20.221Z,52.50
2022-10-24T11:41:58.902Z,52.40
2022-10-24T11:44:42.990Z,43.70
2022-10-24T11:47:43.214Z,42.55
2022-10-24T11:50:25.588Z,49.50
2022-10-24T11:52:59.894Z,41.03
2022-10-24T11:55:37.645Z,46.88
2022-10-24T11:58:14.460Z,40.30
2022-10-24T12:01:03.654Z,44.75
2022-10-24T12:04:01.931Z,42.95
2022-10-24T12:07:02.101Z,43.20
2022-10-24T12:09:47.502Z,45.97
2022-10-24T12:12:35.880Z,46.58
2022-10-24T12:15:28.050Z,49.13
2022-10-24T12:18:09.084Z,47.28
2022-10-24T12:20:39.909Z,46.22
2022-10-24T12:23:19.746Z,48.33
2022-10-24T12:25:53.349Z,48.58
2022-10-24T12:28:27.462Z,50.05
2022-10-24T12:31:15.017Z,46.63
2022-10-24T12:33:45.767Z,47.08
2022-10-24T12:36:15.666Z,50.50
2022-10-24T12:39:10.121Z,49.10
2022-10-24T12:41:43.759Z,60.35
2022-10-24T12:44:39.241Z,58.95
2022-10-24T12:47:33.317Z,64.80
2022-10-24T12:50:36.222Z,60.80
2022-10-24T12:53:18.182Z,62.97
2022-10-24T12:56:10.333Z,59.20
2022-10-24T12:58:43.029Z,62.88
2022-10-24T13:01:26.139Z,63.78
2022-10-24T13:04:22.575Z,54.78
2022-10-24T13:07:07.898Z,59.47
2022-10-24T13:09:45.706Z,51.80
2022-10-24T13:12:34.994Z,47.50
2022-10-24T13:15:26.630Z,43.63
2022-10-24T13:18:12.312Z,48.05
2022-10-24T13:20:45.649Z,45.53
2022-10-24T13:23:19.418Z,46.97
2022-10-24T13:25:50.512Z,44.97
2022-10-24T13:28:41.189Z,46.85
2022-10-24T13:31:45.307Z,47.35
2022-10-24T13:34:41.065Z,40.15
2022-10-24T13:37:24.341Z,44.75
2022-10-24T13:39:59.813Z,39.78
2022-10-24T13:42:43.368Z,39.80
2022-10-24T13:45:27.073Z,42.88
2022-10-24T13:48:01.115Z,44.80
2022-10-24T13:50:32.753Z,38.67
2022-10-24T13:55:38.333Z,40.70
2022-10-24T13:58:13.293Z,35.65
2022-10-24T14:00:46.513Z,37.35
2022-10-24T14:03:18.479Z,38.10
2022-10-24T14:05:51.929Z,33.28
2022-10-24T14:08:26.245Z,35.05
2022-10-24T14:10:57.460Z,32.55
2022-10-24T14:13:30.016Z,32.35
2022-10-24T14:16:02.025Z,36.38
2022-10-24T14:18:32.862Z,36.00
2022-10-24T14:21:05.483Z,35.58
2022-10-24T14:23:38.326Z,36.50
2022-10-24T14:26:13.795Z,36.28
2022-10-24T14:28:50.805Z,39.25
2022-10-24T14:31:24.246Z,41.30
2022-10-24T14:33:55.423Z,34.40
2022-10-24T14:36:27.675Z,34.13
2022-10-24T14:39:01.261Z,40.63
2022-10-24T14:41:33.598Z,36.30
2022-10-24T14:44:03.266Z,40.25
2022-10-24T14:46:37.153Z,36.72
2022-10-24T14:49:33.783Z,40.80
2022-10-24T14:52:11.759Z,44.22
2022-10-24T14:54:45.426Z,40.50
2022-10-24T14:57:21.204Z,44.05
2022-10-24T14:59:53.430Z,40.83
2022-10-24T15:02:26.424Z,42.80
2022-10-24T15:05:26.365Z,44.33
2022-10-24T15:11:02.429Z,38.88
2022-10-24T15:13:34.777Z,35.38
2022-10-24T15:16:04.092Z,38.05
2022-10-24T15:18:42.632Z,36.03
2022-10-24T15:21:17.627Z,34.65
2022-10-24T15:23:49.749Z,33.78
2022-10-24T15:26:24.159Z,36.25
2022-10-24T15:28:58.572Z,32.67
2022-10-24T15:31:29.306Z,39.17
2022-10-24T15:33:59.220Z,34.03
2022-10-24T15:36:31.896Z,38.20
2022-10-24T15:39:03.612Z,36.60
2022-10-24T15:41:34.435Z,36.47
2022-10-24T15:44:04.702Z,41.83
2022-10-24T15:46:34.126Z,38.73
2022-10-24T15:49:05.186Z,38.85
2022-10-24T15:51:34.650Z,35.47
2022-10-24T15:54:05.681Z,36.17
2022-10-24T15:56:36.446Z,38.30
2022-10-24T15:59:07.729Z,40.17
2022-10-24T16:01:40.557Z,37.08
2022-10-24T16:04:12.289Z,44.67
2022-10-24T16:06:41.827Z,41.83
2022-10-24T16:09:18.334Z,40.50
2022-10-24T16:11:49.253Z,44.42
2022-10-24T16:14:21.937Z,39.75
2022-10-24T16:16:53.858Z,37.83
2022-10-24T16:19:23.957Z,39.33
2022-10-24T16:21:53.606Z,41.72
2022-10-24T16:24:23.489Z,37.60
2022-10-24T16:26:54.409Z,38.63
2022-10-24T16:29:24.346Z,37.85
2022-10-24T16:31:53.652Z,42.05
2022-10-24T16:34:23.809Z,40.28
2022-10-24T16:36:55.513Z,43.08
2022-10-24T16:39:25.782Z,43.25
2022-10-24T16:41:59.957Z,40.58
2022-10-24T16:44:29.632Z,38.97
2022-10-24T16:46:58.890Z,40.45
2022-10-24T16:49:28.755Z,37.63
2022-10-24T16:51:58.031Z,45.17
2022-10-24T16:54:27.539Z,39.47
2022-10-24T16:56:56.770Z,32.25
2022-10-24T16:59:29.266Z,40.47
2022-10-24T17:01:58.629Z,41.85
2022-10-24T17:04:32.842Z,44.22
2022-10-24T17:07:04.633Z,35.40
2022-10-24T17:09:34.177Z,37.35
2022-10-24T17:12:03.615Z,40.08
2022-10-24T17:14:36.692Z,42.38
2022-10-24T17:17:06.397Z,44.85
2022-10-24T17:19:37.191Z,43.67
2022-10-24T17:22:06.777Z,45.72
2022-10-24T17:24:39.399Z,47.92
2022-10-24T17:27:12.482Z,43.75
2022-10-24T17:29:44.820Z,49.88
2022-10-24T17:32:15.473Z,48.58
2022-10-24T17:34:50.247Z,44.25
2022-10-24T17:37:24.029Z,45.53
2022-10-24T17:39:57.981Z,42.17
2022-10-24T17:42:27.713Z,48.75
2022-10-24T17:44:59.694Z,41.53
2022-10-24T17:47:30.985Z,40.90
2022-10-24T17:50:01.697Z,39.25
2022-10-24T17:52:31.516Z,47.05
2022-10-24T17:55:01.545Z,44.90
2022-10-24T17:57:31.028Z,43.28
2022-10-24T18:00:03.080Z,52.20
2022-10-24T18:02:33.594Z,44.83
2022-10-24T18:05:03.861Z,43.65
2022-10-24T18:07:35.575Z,44.78
2022-10-24T18:10:06.111Z,41.72
2022-10-24T18:12:36.350Z,40.88
2022-10-24T18:15:11.122Z,42.00
2022-10-24T18:17:41.654Z,45.08
2022-10-24T18:20:13.296Z,39.85
2022-10-24T18:22:43.286Z,45.20
2022-10-24T18:25:20.252Z,47.45
2022-10-24T18:27:52.591Z,41.85
2022-10-24T18:30:24.026Z,43.53
2022-10-24T18:32:53.371Z,46.00
2022-10-24T18:35:23.243Z,48.90
2022-10-24T18:40:27.629Z,44.88
2022-10-24T18:43:04.408Z,49.93
2022-10-24T18:45:37.971Z,45.80
2022-10-24T18:48:09.924Z,48.67
2022-10-24T18:50:39.653Z,42.78
2022-10-24T18:53:22.189Z,49.25
2022-10-24T18:55:53.657Z,43.50
2022-10-24T18:58:31.762Z,43.85
2022-10-24T19:01:13.507Z,43.67
2022-10-24T19:03:50.739Z,49.47
2022-10-24T19:06:26.853Z,44.10
2022-10-24T19:08:56.709Z,41.03
2022-10-24T19:11:26.651Z,44.67
2022-10-24T19:13:56.348Z,47.85
2022-10-24T19:16:30.313Z,44.00
2022-10-24T19:19:03.920Z,47.95
2022-10-24T19:21:34.167Z,42.65
2022-10-24T19:24:03.617Z,44.85
2022-10-24T19:26:33.312Z,43.60
2022-10-24T19:29:04.975Z,45.60
2022-10-24T19:31:37.951Z,50.13
2022-10-24T19:34:07.415Z,46.63
2022-10-24T19:36:37.011Z,43.88
2022-10-24T19:39:07.678Z,46.53
2022-10-24T19:41:38.082Z,46.25
2022-10-24T19:44:07.684Z,44.13
2022-10-24T19:46:38.754Z,41.08
2022-10-24T19:51:38.481Z,42.67
2022-10-24T19:54:08.230Z,48.00
2022-10-24T19:56:38.353Z,40.97
2022-10-24T19:59:09.703Z,43.05
2022-10-24T20:01:40.986Z,36.17
2022-10-24T20:04:10.742Z,38.75
2022-10-24T20:06:40.783Z,35.85
2022-10-24T20:09:10.115Z,40.63
2022-10-24T20:11:40.313Z,41.37
2022-10-24T20:14:10.180Z,43.85
2022-10-24T20:16:41.857Z,37.78
2022-10-24T20:19:11.350Z,39.70
2022-10-24T20:21:41.953Z,39.63
2022-10-24T20:24:11.405Z,42.25
2022-10-24T20:26:41.443Z,39.60
2022-10-24T20:29:11.050Z,44.55
2022-10-24T20:31:44.894Z,42.20
2022-10-24T20:34:15.520Z,38.70
2022-10-24T20:36:47.565Z,41.05
2022-10-24T20:39:21.328Z,33.33
2022-10-24T20:41:54.037Z,36.65
2022-10-24T20:44:23.853Z,38.50
2022-10-24T20:46:59.248Z,37.47
2022-10-24T20:49:28.782Z,35.42
2022-10-24T20:51:58.929Z,34.28
2022-10-24T20:54:28.352Z,40.85
2022-10-24T20:56:58.366Z,34.00
2022-10-24T20:59:27.678Z,33.35
2022-10-24T21:01:59.348Z,39.80
2022-10-24T21:04:28.664Z,29.50
2022-10-24T21:06:58.741Z,32.57
2022-10-24T21:09:28.364Z,36.95
2022-10-24T21:11:58.104Z,34.20
2022-10-24T21:14:27.589Z,30.55
2022-10-24T21:16:59.213Z,29.67
2022-10-24T21:19:30.110Z,33.85
2022-10-24T21:21:59.822Z,32.95
2022-10-24T21:24:29.068Z,32.92
2022-10-24T21:26:58.682Z,33.40
2022-10-24T21:29:33.194Z,29.67
2022-10-24T21:32:05.465Z,37.97
2022-10-24T21:34:35.073Z,28.95
2022-10-24T21:37:05.649Z,27.70
2022-10-24T21:39:35.033Z,35.92
2022-10-24T21:42:05.754Z,31.55
2022-10-24T21:44:36.451Z,35.45
2022-10-24T21:47:07.936Z,26.33
2022-10-24T21:52:07.107Z,30.63
2022-10-24T21:54:36.656Z,29.65
2022-10-24T21:57:06.635Z,30.38
2022-10-24T21:59:36.581Z,29.38
2022-10-24T22:02:08.166Z,28.02
2022-10-24T22:04:37.538Z,27.05
2022-10-24T22:07:07.541Z,27.67
2022-10-24T22:09:37.114Z,23.77
2022-10-24T22:12:07.536Z,26.90
2022-10-24T22:14:36.905Z,26.33
2022-10-24T22:17:08.223Z,26.52
2022-10-24T22:19:37.583Z,27.33
2022-10-24T22:22:07.117Z,30.55
2022-10-24T22:24:36.589Z,29.52
2022-10-24T22:27:06.690Z,27.27
2022-10-24T22:29:36.057Z,28.27
2022-10-24T22:32:08.198Z,27.43
2022-10-24T22:34:38.039Z,22.77
2022-10-24T22:37:17.241Z,23.90
2022-10-24T22:39:46.960Z,25.48
2022-10-24T22:42:20.148Z,23.90
2022-10-24T22:44:51.216Z,22.05
2022-10-24T22:47:49.129Z,25.40
2022-10-24T22:50:43.345Z,24.55
2022-10-24T22:53:15.953Z,26.02
2022-10-24T22:55:53.160Z,27.25
2022-10-24T22:58:23.817Z,22.50
2022-10-24T23:00:57.462Z,26.73
2022-10-24T23:03:39.258Z,22.40
2022-10-24T23:06:16.090Z,18.52
2022-10-24T23:08:47.153Z,23.13
2022-10-24T23:11:16.933Z,25.52
2022-10-24T23:13:47.561Z,19.73
2022-10-24T23:16:25.838Z,22.73
2022-10-24T23:18:57.825Z,22.52
2022-10-24T23:21:32.767Z,19.13
2022-10-24T23:24:02.918Z,20.30
2022-10-24T23:26:39.302Z,15.97
2022-10-24T23:29:17.007Z,20.35
2022-10-24T23:31:46.703Z,17.75
2022-10-24T23:34:19.232Z,17.55
2022-10-24T23:36:49.268Z,17.83
2022-10-24T23:41:49.345Z,22.52
2022-10-24T23:44:19.703Z,14.60
2022-10-24T23:46:53.689Z,19.80
2022-10-24T23:49:35.123Z,16.77
2022-10-24T23:52:13.884Z,12.93
2022-10-24T23:54:43.969Z,17.33
2022-10-24T23:57:18.566Z,18.55
2022-10-24T23:59:48.288Z,22.73
